sensor_id;sensor_type;location;lat;lon;timestamp;P1;durP1;ratioP1;P2;durP2;ratioP2
33270;SDS011;53180;51.344;6.152;2022-12-07T00:01:55;4.53;;;3.60;;
33270;SDS011;53180;51.344;6.152;2022-12-07T00:04:23;3.53;;;3.22;;
33270;SDS011;53180;51.344;6.152;2022-12-07T00:06:52;3.85;;;3.55;;
33270;SDS011;53180;51.344;6.152;2022-12-07T00:09:21;4.45;;;4.05;;
33270;SDS011;53180;51.344;6.152;2022-12-07T00:11:49;3.90;;;3.55;;
33270;SDS011;53180;51.344;6.152;2022-12-07T00:14:20;4.40;;;4.00;;
33270;SDS011;53180;51.344;6.152;2022-12-07T00:16:49;3.88;;;3.47;;
33270;SDS011;53180;51.344;6.152;2022-12-07T00:19:18;3.72;;;3.42;;
33270;SDS011;53180;51.344;6.152;2022-12-07T00:21:47;5.20;;;4.32;;
33270;SDS011;53180;51.344;6.152;2022-12-07T00:24:15;4.03;;;3.72;;
33270;SDS011;53180;51.344;6.152;2022-12-07T00:26:43;5.07;;;4.30;;
33270;SDS011;53180;51.344;6.152;2022-12-07T00:29:13;4.85;;;3.90;;
33270;SDS011;53180;51.344;6.152;2022-12-07T00:31:51;4.05;;;3.75;;
33270;SDS011;53180;51.344;6.152;2022-12-07T00:34:20;4.10;;;3.70;;
33270;SDS011;53180;51.344;6.152;2022-12-07T00:36:49;4.22;;;3.72;;
33270;SDS011;53180;51.344;6.152;2022-12-07T00:39:18;4.45;;;4.05;;
33270;SDS011;53180;51.344;6.152;2022-12-07T00:41:46;4.90;;;4.43;;
33270;SDS011;53180;51.344;6.152;2022-12-07T00:44:14;4.78;;;4.28;;
33270;SDS011;53180;51.344;6.152;2022-12-07T00:46:44;4.75;;;4.18;;
33270;SDS011;53180;51.344;6.152;2022-12-07T00:49:12;4.65;;;4.18;;
33270;SDS011;53180;51.344;6.152;2022-12-07T00:51:41;4.95;;;4.35;;
33270;SDS011;53180;51.344;6.152;2022-12-07T00:54:09;5.43;;;3.97;;
33270;SDS011;53180;51.344;6.152;2022-12-07T00:56:37;4.78;;;4.28;;
33270;SDS011;53180;51.344;6.152;2022-12-07T00:59:06;4.13;;;3.72;;
33270;SDS011;53180;51.344;6.152;2022-12-07T01:01:35;4.65;;;4.25;;
33270;SDS011;53180;51.344;6.152;2022-12-07T01:04:05;4.65;;;4.25;;
33270;SDS011;53180;51.344;6.152;2022-12-07T01:06:34;10.75;;;4.70;;
33270;SDS011;53180;51.344;6.152;2022-12-07T01:09:02;4.70;;;4.30;;
33270;SDS011;53180;51.344;6.152;2022-12-07T01:11:32;4.85;;;4.43;;
33270;SDS011;53180;51.344;6.152;2022-12-07T01:14:01;5.15;;;4.65;;
33270;SDS011;53180;51.344;6.152;2022-12-07T01:16:30;4.68;;;4.28;;
33270;SDS011;53180;51.344;6.152;2022-12-07T01:19:00;6.90;;;4.57;;
33270;SDS011;53180;51.344;6.152;2022-12-07T01:24:04;4.60;;;4.10;;
33270;SDS011;53180;51.344;6.152;2022-12-07T01:26:35;4.78;;;4.38;;
33270;SDS011;53180;51.344;6.152;2022-12-07T01:29:03;4.80;;;4.40;;
33270;SDS011;53180;51.344;6.152;2022-12-07T01:31:32;5.53;;;4.50;;
33270;SDS011;53180;51.344;6.152;2022-12-07T01:34:00;4.57;;;4.03;;
33270;SDS011;53180;51.344;6.152;2022-12-07T01:36:31;4.30;;;4.00;;
33270;SDS011;53180;51.344;6.152;2022-12-07T01:39:03;6.88;;;4.00;;
33270;SDS011;53180;51.344;6.152;2022-12-07T01:41:34;4.20;;;3.85;;
33270;SDS011;53180;51.344;6.152;2022-12-07T01:44:17;3.95;;;3.65;;
33270;SDS011;53180;51.344;6.152;2022-12-07T01:46:49;6.05;;;3.95;;
33270;SDS011;53180;51.344;6.152;2022-12-07T01:49:20;7.22;;;4.30;;
33270;SDS011;53180;51.344;6.152;2022-12-07T01:51:56;4.25;;;3.95;;
33270;SDS011;53180;51.344;6.152;2022-12-07T01:54:35;5.10;;;4.25;;
33270;SDS011;53180;51.344;6.152;2022-12-07T01:57:04;4.68;;;4.28;;
33270;SDS011;53180;51.344;6.152;2022-12-07T01:59:35;4.47;;;4.18;;
33270;SDS011;53180;51.344;6.152;2022-12-07T02:02:04;4.78;;;4.35;;
33270;SDS011;53180;51.344;6.152;2022-12-07T02:04:45;10.38;;;4.10;;
33270;SDS011;53180;51.344;6.152;2022-12-07T02:07:15;5.05;;;4.10;;
33270;SDS011;53180;51.344;6.152;2022-12-07T02:09:44;4.90;;;4.50;;
33270;SDS011;53180;51.344;6.152;2022-12-07T02:12:12;4.43;;;4.03;;
33270;SDS011;53180;51.344;6.152;2022-12-07T02:14:41;4.30;;;3.90;;
33270;SDS011;53180;51.344;6.152;2022-12-07T02:17:11;4.07;;;3.78;;
33270;SDS011;53180;51.344;6.152;2022-12-07T02:19:51;4.93;;;4.53;;
33270;SDS011;53180;51.344;6.152;2022-12-07T02:22:51;4.35;;;4.00;;
33270;SDS011;53180;51.344;6.152;2022-12-07T02:25:42;4.25;;;3.85;;
33270;SDS011;53180;51.344;6.152;2022-12-07T02:28:27;4.32;;;4.00;;
33270;SDS011;53180;51.344;6.152;2022-12-07T02:31:01;3.60;;;3.30;;
33270;SDS011;53180;51.344;6.152;2022-12-07T02:33:36;4.05;;;3.72;;
33270;SDS011;53180;51.344;6.152;2022-12-07T02:36:10;4.57;;;4.18;;
33270;SDS011;53180;51.344;6.152;2022-12-07T02:38:45;4.30;;;3.85;;
33270;SDS011;53180;51.344;6.152;2022-12-07T02:41:20;4.70;;;4.30;;
33270;SDS011;53180;51.344;6.152;2022-12-07T02:43:55;4.45;;;4.05;;
33270;SDS011;53180;51.344;6.152;2022-12-07T02:46:28;3.85;;;3.55;;
33270;SDS011;53180;51.344;6.152;2022-12-07T02:49:01;3.90;;;3.60;;
33270;SDS011;53180;51.344;6.152;2022-12-07T02:51:30;4.30;;;3.90;;
33270;SDS011;53180;51.344;6.152;2022-12-07T02:54:00;4.40;;;4.10;;
33270;SDS011;53180;51.344;6.152;2022-12-07T02:56:30;4.10;;;3.80;;
33270;SDS011;53180;51.344;6.152;2022-12-07T02:59:15;3.72;;;3.42;;
33270;SDS011;53180;51.344;6.152;2022-12-07T03:01:55;3.58;;;3.30;;
33270;SDS011;53180;51.344;6.152;2022-12-07T03:04:38;4.25;;;3.85;;
33270;SDS011;53180;51.344;6.152;2022-12-07T03:07:16;4.13;;;3.83;;
33270;SDS011;53180;51.344;6.152;2022-12-07T03:09:55;4.50;;;4.10;;
33270;SDS011;53180;51.344;6.152;2022-12-07T03:12:29;3.65;;;3.35;;
33270;SDS011;53180;51.344;6.152;2022-12-07T03:15:06;3.83;;;3.50;;
33270;SDS011;53180;51.344;6.152;2022-12-07T03:17:41;3.78;;;3.47;;
33270;SDS011;53180;51.344;6.152;2022-12-07T03:20:13;4.43;;;4.03;;
33270;SDS011;53180;51.344;6.152;2022-12-07T03:22:46;4.00;;;3.70;;
33270;SDS011;53180;51.344;6.152;2022-12-07T03:25:15;3.95;;;3.65;;
33270;SDS011;53180;51.344;6.152;2022-12-07T03:27:46;3.22;;;3.03;;
33270;SDS011;53180;51.344;6.152;2022-12-07T03:30:22;4.10;;;3.80;;
33270;SDS011;53180;51.344;6.152;2022-12-07T03:32:58;3.85;;;3.55;;
33270;SDS011;53180;51.344;6.152;2022-12-07T03:35:31;3.60;;;3.30;;
33270;SDS011;53180;51.344;6.152;2022-12-07T03:38:04;3.92;;;3.63;;
33270;SDS011;53180;51.344;6.152;2022-12-07T03:40:43;4.05;;;3.25;;
33270;SDS011;53180;51.344;6.152;2022-12-07T03:43:17;3.90;;;3.60;;
33270;SDS011;53180;51.344;6.152;2022-12-07T03:45:48;3.67;;;3.38;;
33270;SDS011;53180;51.344;6.152;2022-12-07T03:48:32;3.55;;;3.25;;
33270;SDS011;53180;51.344;6.152;2022-12-07T03:51:06;3.83;;;3.55;;
33270;SDS011;53180;51.344;6.152;2022-12-07T03:53:42;3.50;;;3.30;;
33270;SDS011;53180;51.344;6.152;2022-12-07T03:56:18;4.93;;;3.60;;
33270;SDS011;53180;51.344;6.152;2022-12-07T03:58:47;3.83;;;3.53;;
33270;SDS011;53180;51.344;6.152;2022-12-07T04:01:17;5.05;;;3.78;;
33270;SDS011;53180;51.344;6.152;2022-12-07T04:03:47;3.67;;;3.38;;
33270;SDS011;53180;51.344;6.152;2022-12-07T04:06:15;3.60;;;3.30;;
33270;SDS011;53180;51.344;6.152;2022-12-07T04:08:43;3.97;;;3.58;;
33270;SDS011;53180;51.344;6.152;2022-12-07T04:11:12;3.90;;;3.60;;
33270;SDS011;53180;51.344;6.152;2022-12-07T04:13:40;3.72;;;3.53;;
33270;SDS011;53180;51.344;6.152;2022-12-07T04:16:26;3.72;;;3.45;;
33270;SDS011;53180;51.344;6.152;2022-12-07T04:18:55;4.70;;;4.25;;
33270;SDS011;53180;51.344;6.152;2022-12-07T04:21:24;3.50;;;3.28;;
33270;SDS011;53180;51.344;6.152;2022-12-07T04:23:52;4.45;;;4.05;;
33270;SDS011;53180;51.344;6.152;2022-12-07T04:26:20;3.55;;;3.25;;
33270;SDS011;53180;51.344;6.152;2022-12-07T04:28:49;3.90;;;3.55;;
33270;SDS011;53180;51.344;6.152;2022-12-07T04:31:17;4.30;;;3.85;;
33270;SDS011;53180;51.344;6.152;2022-12-07T04:33:45;4.32;;;3.92;;
33270;SDS011;53180;51.344;6.152;2022-12-07T04:36:15;4.32;;;3.92;;
33270;SDS011;53180;51.344;6.152;2022-12-07T04:38:46;4.00;;;3.70;;
33270;SDS011;53180;51.344;6.152;2022-12-07T04:41:14;4.18;;;3.85;;
33270;SDS011;53180;51.344;6.152;2022-12-07T04:43:42;3.55;;;3.30;;
33270;SDS011;53180;51.344;6.152;2022-12-07T04:46:10;3.85;;;3.45;;
33270;SDS011;53180;51.344;6.152;2022-12-07T04:48:38;10.65;;;3.45;;
33270;SDS011;53180;51.344;6.152;2022-12-07T04:51:07;4.43;;;3.63;;
33270;SDS011;53180;51.344;6.152;2022-12-07T04:53:36;3.90;;;3.47;;
33270;SDS011;53180;51.344;6.152;2022-12-07T04:56:05;3.33;;;3.13;;
33270;SDS011;53180;51.344;6.152;2022-12-07T04:58:33;3.85;;;3.55;;
33270;SDS011;53180;51.344;6.152;2022-12-07T05:01:02;3.75;;;3.38;;
33270;SDS011;53180;51.344;6.152;2022-12-07T05:03:30;4.20;;;3.72;;
33270;SDS011;53180;51.344;6.152;2022-12-07T05:05:58;3.58;;;3.28;;
33270;SDS011;53180;51.344;6.152;2022-12-07T05:08:27;3.72;;;3.42;;
33270;SDS011;53180;51.344;6.152;2022-12-07T05:10:56;5.35;;;3.60;;
33270;SDS011;53180;51.344;6.152;2022-12-07T05:13:25;3.78;;;3.47;;
33270;SDS011;53180;51.344;6.152;2022-12-07T05:15:53;3.60;;;3.35;;
33270;SDS011;53180;51.344;6.152;2022-12-07T05:18:21;4.82;;;3.50;;
33270;SDS011;53180;51.344;6.152;2022-12-07T05:20:50;3.88;;;3.58;;
33270;SDS011;53180;51.344;6.152;2022-12-07T05:23:19;3.63;;;3.40;;
33270;SDS011;53180;51.344;6.152;2022-12-07T05:25:47;3.55;;;3.25;;
33270;SDS011;53180;51.344;6.152;2022-12-07T05:28:17;3.42;;;3.13;;
33270;SDS011;53180;51.344;6.152;2022-12-07T05:30:45;4.20;;;3.80;;
33270;SDS011;53180;51.344;6.152;2022-12-07T05:33:14;3.75;;;3.40;;
33270;SDS011;53180;51.344;6.152;2022-12-07T05:35:42;4.18;;;3.78;;
33270;SDS011;53180;51.344;6.152;2022-12-07T05:38:10;4.45;;;4.03;;
33270;SDS011;53180;51.344;6.152;2022-12-07T05:40:38;4.63;;;3.80;;
33270;SDS011;53180;51.344;6.152;2022-12-07T05:43:07;3.60;;;3.30;;
33270;SDS011;53180;51.344;6.152;2022-12-07T05:45:36;4.03;;;3.67;;
33270;SDS011;53180;51.344;6.152;2022-12-07T05:48:05;3.55;;;3.13;;
33270;SDS011;53180;51.344;6.152;2022-12-07T05:50:33;3.60;;;3.22;;
33270;SDS011;53180;51.344;6.152;2022-12-07T05:53:02;4.20;;;3.80;;
33270;SDS011;53180;51.344;6.152;2022-12-07T05:55:30;3.97;;;3.67;;
33270;SDS011;53180;51.344;6.152;2022-12-07T05:57:58;4.22;;;3.45;;
33270;SDS011;53180;51.344;6.152;2022-12-07T06:00:45;3.38;;;3.13;;
33270;SDS011;53180;51.344;6.152;2022-12-07T06:03:16;3.50;;;3.20;;
33270;SDS011;53180;51.344;6.152;2022-12-07T06:05:47;3.40;;;3.17;;
33270;SDS011;53180;51.344;6.152;2022-12-07T06:08:15;3.15;;;2.88;;
33270;SDS011;53180;51.344;6.152;2022-12-07T06:10:43;3.58;;;2.67;;
33270;SDS011;53180;51.344;6.152;2022-12-07T06:13:12;3.47;;;3.17;;
33270;SDS011;53180;51.344;6.152;2022-12-07T06:15:39;3.40;;;3.03;;
33270;SDS011;53180;51.344;6.152;2022-12-07T06:18:09;3.13;;;2.92;;
33270;SDS011;53180;51.344;6.152;2022-12-07T06:20:37;3.40;;;3.20;;
33270;SDS011;53180;51.344;6.152;2022-12-07T06:23:05;4.07;;;3.67;;
33270;SDS011;53180;51.344;6.152;2022-12-07T06:25:33;3.13;;;2.90;;
33270;SDS011;53180;51.344;6.152;2022-12-07T06:28:02;4.97;;;3.63;;
33270;SDS011;53180;51.344;6.152;2022-12-07T06:30:30;3.45;;;3.15;;
33270;SDS011;53180;51.344;6.152;2022-12-07T06:32:58;3.38;;;3.17;;
33270;SDS011;53180;51.344;6.152;2022-12-07T06:35:28;3.72;;;3.42;;
33270;SDS011;53180;51.344;6.152;2022-12-07T06:37:56;3.63;;;3.33;;
33270;SDS011;53180;51.344;6.152;2022-12-07T06:40:24;3.20;;;3.00;;
33270;SDS011;53180;51.344;6.152;2022-12-07T06:42:53;3.67;;;3.38;;
33270;SDS011;53180;51.344;6.152;2022-12-07T06:45:21;3.40;;;3.08;;
33270;SDS011;53180;51.344;6.152;2022-12-07T06:47:49;3.30;;;3.10;;
33270;SDS011;53180;51.344;6.152;2022-12-07T06:50:18;3.53;;;3.22;;
33270;SDS011;53180;51.344;6.152;2022-12-07T06:52:47;3.50;;;3.15;;
33270;SDS011;53180;51.344;6.152;2022-12-07T06:55:16;3.70;;;3.40;;
33270;SDS011;53180;51.344;6.152;2022-12-07T06:57:44;4.38;;;3.35;;
33270;SDS011;53180;51.344;6.152;2022-12-07T07:00:13;3.88;;;3.58;;
33270;SDS011;53180;51.344;6.152;2022-12-07T07:02:47;3.80;;;3.50;;
33270;SDS011;53180;51.344;6.152;2022-12-07T07:05:15;3.88;;;3.58;;
33270;SDS011;53180;51.344;6.152;2022-12-07T07:07:44;3.42;;;3.20;;
33270;SDS011;53180;51.344;6.152;2022-12-07T07:10:34;3.50;;;3.20;;
33270;SDS011;53180;51.344;6.152;2022-12-07T07:13:03;3.03;;;2.83;;
33270;SDS011;53180;51.344;6.152;2022-12-07T07:15:32;4.28;;;3.53;;
33270;SDS011;53180;51.344;6.152;2022-12-07T07:18:01;4.05;;;3.67;;
33270;SDS011;53180;51.344;6.152;2022-12-07T07:20:33;3.70;;;3.40;;
33270;SDS011;53180;51.344;6.152;2022-12-07T07:23:02;3.63;;;3.40;;
33270;SDS011;53180;51.344;6.152;2022-12-07T07:25:30;4.43;;;4.03;;
33270;SDS011;53180;51.344;6.152;2022-12-07T07:28:00;3.50;;;3.30;;
33270;SDS011;53180;51.344;6.152;2022-12-07T07:30:29;7.60;;;3.80;;
33270;SDS011;53180;51.344;6.152;2022-12-07T07:32:58;3.88;;;3.58;;
33270;SDS011;53180;51.344;6.152;2022-12-07T07:35:28;4.10;;;3.80;;
33270;SDS011;53180;51.344;6.152;2022-12-07T07:37:58;3.70;;;3.40;;
33270;SDS011;53180;51.344;6.152;2022-12-07T07:40:27;3.60;;;3.40;;
33270;SDS011;53180;51.344;6.152;2022-12-07T07:42:56;3.95;;;3.65;;
33270;SDS011;53180;51.344;6.152;2022-12-07T07:45:26;4.95;;;3.80;;
33270;SDS011;53180;51.344;6.152;2022-12-07T07:47:57;3.85;;;3.55;;
33270;SDS011;53180;51.344;6.152;2022-12-07T07:50:25;4.20;;;3.90;;
33270;SDS011;53180;51.344;6.152;2022-12-07T07:52:54;3.83;;;3.53;;
33270;SDS011;53180;51.344;6.152;2022-12-07T07:55:24;3.78;;;3.50;;
33270;SDS011;53180;51.344;6.152;2022-12-07T07:57:53;4.30;;;3.90;;
33270;SDS011;53180;51.344;6.152;2022-12-07T08:00:22;3.90;;;3.60;;
33270;SDS011;53180;51.344;6.152;2022-12-07T08:02:52;4.53;;;4.13;;
33270;SDS011;53180;51.344;6.152;2022-12-07T08:05:21;4.22;;;3.92;;
33270;SDS011;53180;51.344;6.152;2022-12-07T08:07:49;4.00;;;3.67;;
33270;SDS011;53180;51.344;6.152;2022-12-07T08:10:17;4.32;;;3.92;;
33270;SDS011;53180;51.344;6.152;2022-12-07T08:12:46;4.35;;;4.05;;
33270;SDS011;53180;51.344;6.152;2022-12-07T08:15:32;6.22;;;4.07;;
33270;SDS011;53180;51.344;6.152;2022-12-07T08:18:02;4.57;;;3.45;;
33270;SDS011;53180;51.344;6.152;2022-12-07T08:20:30;3.83;;;3.53;;
33270;SDS011;53180;51.344;6.152;2022-12-07T08:22:59;3.90;;;3.60;;
33270;SDS011;53180;51.344;6.152;2022-12-07T08:25:28;4.10;;;3.80;;
33270;SDS011;53180;51.344;6.152;2022-12-07T08:27:57;4.05;;;3.75;;
33270;SDS011;53180;51.344;6.152;2022-12-07T08:30:26;3.83;;;3.53;;
33270;SDS011;53180;51.344;6.152;2022-12-07T08:32:55;3.80;;;3.50;;
33270;SDS011;53180;51.344;6.152;2022-12-07T08:35:26;4.05;;;3.75;;
33270;SDS011;53180;51.344;6.152;2022-12-07T08:37:54;4.10;;;3.65;;
33270;SDS011;53180;51.344;6.152;2022-12-07T08:40:24;3.63;;;3.33;;
33270;SDS011;53180;51.344;6.152;2022-12-07T08:42:52;4.00;;;3.65;;
33270;SDS011;53180;51.344;6.152;2022-12-07T08:45:21;3.67;;;3.38;;
33270;SDS011;53180;51.344;6.152;2022-12-07T08:47:53;4.15;;;3.80;;
33270;SDS011;53180;51.344;6.152;2022-12-07T08:50:30;3.25;;;3.05;;
33270;SDS011;53180;51.344;6.152;2022-12-07T08:53:00;3.72;;;3.38;;
33270;SDS011;53180;51.344;6.152;2022-12-07T08:55:30;3.92;;;3.60;;
33270;SDS011;53180;51.344;6.152;2022-12-07T08:58:00;3.67;;;3.38;;
33270;SDS011;53180;51.344;6.152;2022-12-07T09:00:30;4.03;;;3.72;;
33270;SDS011;53180;51.344;6.152;2022-12-07T09:02:58;4.32;;;3.80;;
33270;SDS011;53180;51.344;6.152;2022-12-07T09:05:26;5.03;;;4.60;;
33270;SDS011;53180;51.344;6.152;2022-12-07T09:07:57;4.63;;;4.05;;
33270;SDS011;53180;51.344;6.152;2022-12-07T09:10:28;9.05;;;4.45;;
33270;SDS011;53180;51.344;6.152;2022-12-07T09:12:57;3.85;;;3.53;;
33270;SDS011;53180;51.344;6.152;2022-12-07T09:15:27;5.30;;;4.25;;
33270;SDS011;53180;51.344;6.152;2022-12-07T09:17:55;4.13;;;3.72;;
33270;SDS011;53180;51.344;6.152;2022-12-07T09:20:23;4.43;;;3.35;;
33270;SDS011;53180;51.344;6.152;2022-12-07T09:22:53;3.40;;;3.10;;
33270;SDS011;53180;51.344;6.152;2022-12-07T09:25:23;3.78;;;3.45;;
33270;SDS011;53180;51.344;6.152;2022-12-07T09:27:55;3.33;;;3.05;;
33270;SDS011;53180;51.344;6.152;2022-12-07T09:30:25;4.10;;;3.70;;
33270;SDS011;53180;51.344;6.152;2022-12-07T09:32:54;3.63;;;3.33;;
33270;SDS011;53180;51.344;6.152;2022-12-07T09:35:24;4.15;;;3.70;;
33270;SDS011;53180;51.344;6.152;2022-12-07T09:37:53;3.88;;;3.58;;
33270;SDS011;53180;51.344;6.152;2022-12-07T09:40:22;5.50;;;3.63;;
33270;SDS011;53180;51.344;6.152;2022-12-07T09:42:53;4.35;;;3.50;;
33270;SDS011;53180;51.344;6.152;2022-12-07T09:45:24;5.25;;;3.53;;
33270;SDS011;53180;51.344;6.152;2022-12-07T09:47:58;4.38;;;3.42;;
33270;SDS011;53180;51.344;6.152;2022-12-07T09:50:27;3.40;;;3.00;;
33270;SDS011;53180;51.344;6.152;2022-12-07T09:53:02;3.85;;;3.45;;
33270;SDS011;53180;51.344;6.152;2022-12-07T09:55:37;4.80;;;2.97;;
33270;SDS011;53180;51.344;6.152;2022-12-07T09:58:08;4.97;;;3.17;;
33270;SDS011;53180;51.344;6.152;2022-12-07T10:00:45;3.35;;;2.85;;
33270;SDS011;53180;51.344;6.152;2022-12-07T10:03:14;3.40;;;3.10;;
33270;SDS011;53180;51.344;6.152;2022-12-07T10:05:43;3.88;;;3.45;;
33270;SDS011;53180;51.344;6.152;2022-12-07T10:08:14;3.30;;;3.00;;
33270;SDS011;53180;51.344;6.152;2022-12-07T10:10:45;3.20;;;2.80;;
33270;SDS011;53180;51.344;6.152;2022-12-07T10:13:19;2.60;;;2.40;;
33270;SDS011;53180;51.344;6.152;2022-12-07T10:15:50;3.40;;;3.10;;
33270;SDS011;53180;51.344;6.152;2022-12-07T10:18:25;4.07;;;2.50;;
33270;SDS011;53180;51.344;6.152;2022-12-07T10:21:00;3.30;;;3.00;;
33270;SDS011;53180;51.344;6.152;2022-12-07T10:23:39;4.93;;;3.03;;
33270;SDS011;53180;51.344;6.152;2022-12-07T10:26:20;5.28;;;3.40;;
33270;SDS011;53180;51.344;6.152;2022-12-07T10:29:02;14.73;;;3.20;;
33270;SDS011;53180;51.344;6.152;2022-12-07T10:31:51;3.95;;;2.90;;
33270;SDS011;53180;51.344;6.152;2022-12-07T10:34:25;3.58;;;3.28;;
33270;SDS011;53180;51.344;6.152;2022-12-07T10:39:47;4.97;;;3.30;;
33270;SDS011;53180;51.344;6.152;2022-12-07T10:42:19;5.10;;;3.25;;
33270;SDS011;53180;51.344;6.152;2022-12-07T10:45:06;3.40;;;3.10;;
33270;SDS011;53180;51.344;6.152;2022-12-07T10:47:42;2.47;;;2.28;;
33270;SDS011;53180;51.344;6.152;2022-12-07T10:50:24;3.13;;;2.88;;
33270;SDS011;53180;51.344;6.152;2022-12-07T10:53:23;3.22;;;2.83;;
33270;SDS011;53180;51.344;6.152;2022-12-07T10:56:12;3.92;;;2.53;;
33270;SDS011;53180;51.344;6.152;2022-12-07T10:59:28;2.83;;;2.63;;
33270;SDS011;53180;51.344;6.152;2022-12-07T11:02:17;3.63;;;3.13;;
33270;SDS011;53180;51.344;6.152;2022-12-07T11:05:02;3.63;;;3.20;;
33270;SDS011;53180;51.344;6.152;2022-12-07T11:07:43;5.60;;;2.72;;
33270;SDS011;53180;51.344;6.152;2022-12-07T11:10:23;3.13;;;2.80;;
33270;SDS011;53180;51.344;6.152;2022-12-07T11:13:12;5.15;;;2.85;;
33270;SDS011;53180;51.344;6.152;2022-12-07T11:18:57;6.78;;;2.90;;
33270;SDS011;53180;51.344;6.152;2022-12-07T11:24:25;3.55;;;2.50;;
33270;SDS011;53180;51.344;6.152;2022-12-07T11:27:08;3.78;;;2.78;;
33270;SDS011;53180;51.344;6.152;2022-12-07T11:29:55;3.13;;;2.53;;
33270;SDS011;53180;51.344;6.152;2022-12-07T11:32:51;3.67;;;2.60;;
33270;SDS011;53180;51.344;6.152;2022-12-07T11:35:31;2.88;;;2.67;;
33270;SDS011;53180;51.344;6.152;2022-12-07T11:38:24;3.85;;;2.22;;
33270;SDS011;53180;51.344;6.152;2022-12-07T11:40:59;3.80;;;3.00;;
33270;SDS011;53180;51.344;6.152;2022-12-07T11:46:24;2.47;;;2.25;;
33270;SDS011;53180;51.344;6.152;2022-12-07T11:49:01;5.05;;;2.72;;
33270;SDS011;53180;51.344;6.152;2022-12-07T11:51:38;2.20;;;2.00;;
33270;SDS011;53180;51.344;6.152;2022-12-07T11:54:12;2.40;;;2.20;;
33270;SDS011;53180;51.344;6.152;2022-12-07T11:56:45;2.55;;;2.35;;
33270;SDS011;53180;51.344;6.152;2022-12-07T11:59:17;2.30;;;2.00;;
33270;SDS011;53180;51.344;6.152;2022-12-07T12:01:52;5.50;;;2.50;;
33270;SDS011;53180;51.344;6.152;2022-12-07T12:04:30;2.38;;;2.17;;
33270;SDS011;53180;51.344;6.152;2022-12-07T12:07:10;2.72;;;1.88;;
33270;SDS011;53180;51.344;6.152;2022-12-07T12:10:05;2.22;;;2.00;;
33270;SDS011;53180;51.344;6.152;2022-12-07T12:12:47;2.47;;;2.28;;
33270;SDS011;53180;51.344;6.152;2022-12-07T12:15:58;1.90;;;1.80;;
33270;SDS011;53180;51.344;6.152;2022-12-07T12:18:53;2.20;;;2.05;;
33270;SDS011;53180;51.344;6.152;2022-12-07T12:21:40;2.67;;;2.42;;
33270;SDS011;53180;51.344;6.152;2022-12-07T12:24:11;3.10;;;2.47;;
33270;SDS011;53180;51.344;6.152;2022-12-07T12:26:48;2.00;;;1.90;;
33270;SDS011;53180;51.344;6.152;2022-12-07T12:29:20;3.72;;;2.35;;
33270;SDS011;53180;51.344;6.152;2022-12-07T12:34:57;2.33;;;2.13;;
33270;SDS011;53180;51.344;6.152;2022-12-07T12:37:39;2.40;;;2.22;;
33270;SDS011;53180;51.344;6.152;2022-12-07T12:49:33;3.28;;;2.50;;
33270;SDS011;53180;51.344;6.152;2022-12-07T12:55:29;4.55;;;2.40;;
33270;SDS011;53180;51.344;6.152;2022-12-07T12:58:38;4.18;;;2.60;;
33270;SDS011;53180;51.344;6.152;2022-12-07T13:07:10;11.55;;;2.35;;
33270;SDS011;53180;51.344;6.152;2022-12-07T13:09:43;2.10;;;1.92;;
33270;SDS011;53180;51.344;6.152;2022-12-07T13:12:13;1.90;;;1.80;;
33270;SDS011;53180;51.344;6.152;2022-12-07T13:14:51;2.15;;;2.05;;
33270;SDS011;53180;51.344;6.152;2022-12-07T13:23:25;2.83;;;2.58;;
33270;SDS011;53180;51.344;6.152;2022-12-07T13:28:50;3.92;;;2.30;;
33270;SDS011;53180;51.344;6.152;2022-12-07T13:31:23;2.58;;;2.38;;
33270;SDS011;53180;51.344;6.152;2022-12-07T13:34:00;2.83;;;2.10;;
33270;SDS011;53180;51.344;6.152;2022-12-07T13:36:30;2.13;;;1.98;;
33270;SDS011;53180;51.344;6.152;2022-12-07T13:39:19;2.55;;;2.35;;
33270;SDS011;53180;51.344;6.152;2022-12-07T13:41:52;2.25;;;2.05;;
33270;SDS011;53180;51.344;6.152;2022-12-07T13:44:23;2.13;;;2.00;;
33270;SDS011;53180;51.344;6.152;2022-12-07T13:46:53;2.80;;;2.38;;
33270;SDS011;53180;51.344;6.152;2022-12-07T13:49:29;2.55;;;2.15;;
33270;SDS011;53180;51.344;6.152;2022-12-07T13:52:13;2.03;;;1.83;;
33270;SDS011;53180;51.344;6.152;2022-12-07T13:54:45;2.08;;;1.98;;
33270;SDS011;53180;51.344;6.152;2022-12-07T13:59:45;2.35;;;2.15;;
33270;SDS011;53180;51.344;6.152;2022-12-07T14:02:18;2.67;;;1.90;;
33270;SDS011;53180;51.344;6.152;2022-12-07T14:04:49;11.77;;;2.50;;
33270;SDS011;53180;51.344;6.152;2022-12-07T14:07:19;2.83;;;2.60;;
33270;SDS011;53180;51.344;6.152;2022-12-07T14:09:57;2.20;;;2.00;;
33270;SDS011;53180;51.344;6.152;2022-12-07T14:12:29;2.50;;;2.30;;
33270;SDS011;53180;51.344;6.152;2022-12-07T14:14:59;2.75;;;2.30;;
33270;SDS011;53180;51.344;6.152;2022-12-07T14:17:31;2.13;;;1.92;;
33270;SDS011;53180;51.344;6.152;2022-12-07T14:19:59;2.40;;;2.20;;
33270;SDS011;53180;51.344;6.152;2022-12-07T14:25:09;1.98;;;1.88;;
33270;SDS011;53180;51.344;6.152;2022-12-07T14:27:53;2.22;;;1.80;;
33270;SDS011;53180;51.344;6.152;2022-12-07T14:30:26;2.17;;;1.98;;
33270;SDS011;53180;51.344;6.152;2022-12-07T14:32:57;5.03;;;2.40;;
33270;SDS011;53180;51.344;6.152;2022-12-07T14:37:56;2.10;;;1.95;;
33270;SDS011;53180;51.344;6.152;2022-12-07T14:40:26;2.08;;;1.95;;
33270;SDS011;53180;51.344;6.152;2022-12-07T14:45:30;3.03;;;2.33;;
33270;SDS011;53180;51.344;6.152;2022-12-07T14:47:59;2.30;;;2.10;;
33270;SDS011;53180;51.344;6.152;2022-12-07T14:50:48;2.00;;;1.88;;
33270;SDS011;53180;51.344;6.152;2022-12-07T14:53:41;2.80;;;2.60;;
33270;SDS011;53180;51.344;6.152;2022-12-07T14:56:18;2.83;;;2.45;;
33270;SDS011;53180;51.344;6.152;2022-12-07T14:58:48;2.45;;;2.25;;
33270;SDS011;53180;51.344;6.152;2022-12-07T15:01:16;2.70;;;2.50;;
33270;SDS011;53180;51.344;6.152;2022-12-07T15:03:45;2.25;;;2.08;;
33270;SDS011;53180;51.344;6.152;2022-12-07T15:06:14;4.32;;;2.22;;
33270;SDS011;53180;51.344;6.152;2022-12-07T15:11:13;2.88;;;2.30;;
33270;SDS011;53180;51.344;6.152;2022-12-07T15:13:42;3.42;;;2.50;;
33270;SDS011;53180;51.344;6.152;2022-12-07T15:16:29;2.63;;;2.42;;
33270;SDS011;53180;51.344;6.152;2022-12-07T15:19:18;2.95;;;2.35;;
33270;SDS011;53180;51.344;6.152;2022-12-07T15:21:55;11.88;;;2.60;;
33270;SDS011;53180;51.344;6.152;2022-12-07T15:24:24;2.40;;;2.20;;
33270;SDS011;53180;51.344;6.152;2022-12-07T15:26:53;2.13;;;2.03;;
33270;SDS011;53180;51.344;6.152;2022-12-07T15:29:21;4.32;;;2.47;;
33270;SDS011;53180;51.344;6.152;2022-12-07T15:31:51;6.72;;;2.45;;
33270;SDS011;53180;51.344;6.152;2022-12-07T15:34:23;3.10;;;2.53;;
33270;SDS011;53180;51.344;6.152;2022-12-07T15:37:01;2.88;;;2.33;;
33270;SDS011;53180;51.344;6.152;2022-12-07T15:39:30;2.95;;;2.67;;
33270;SDS011;53180;51.344;6.152;2022-12-07T15:41:58;3.17;;;2.78;;
33270;SDS011;53180;51.344;6.152;2022-12-07T15:44:27;3.75;;;2.30;;
33270;SDS011;53180;51.344;6.152;2022-12-07T15:47:14;3.08;;;2.78;;
33270;SDS011;53180;51.344;6.152;2022-12-07T15:49:42;2.78;;;2.53;;
33270;SDS011;53180;51.344;6.152;2022-12-07T15:52:11;3.65;;;2.63;;
33270;SDS011;53180;51.344;6.152;2022-12-07T15:54:39;2.35;;;2.15;;
33270;SDS011;53180;51.344;6.152;2022-12-07T15:57:07;2.53;;;2.33;;
33270;SDS011;53180;51.344;6.152;2022-12-07T15:59:35;2.85;;;2.60;;
33270;SDS011;53180;51.344;6.152;2022-12-07T16:02:04;2.67;;;2.47;;
33270;SDS011;53180;51.344;6.152;2022-12-07T16:04:34;3.00;;;2.70;;
33270;SDS011;53180;51.344;6.152;2022-12-07T16:07:02;2.53;;;2.33;;
33270;SDS011;53180;51.344;6.152;2022-12-07T16:09:31;3.33;;;2.60;;
33270;SDS011;53180;51.344;6.152;2022-12-07T16:11:59;3.20;;;2.40;;
33270;SDS011;53180;51.344;6.152;2022-12-07T16:14:27;3.55;;;2.53;;
33270;SDS011;53180;51.344;6.152;2022-12-07T16:16:58;2.60;;;2.40;;
33270;SDS011;53180;51.344;6.152;2022-12-07T16:19:30;2.75;;;2.55;;